Flight Track Log - Related Links

Times and Time Zones

All times are in EDT time to prevent confusion due to time zone crossing. See the N2021T flight status page for this flight to view local times or setup timezone preferences in your user account.

Time Position Orientation Groundspeed Altitude Reporting Facility
EDT Latitude Longitude Course Direction KTS MPH feet Rate Location/Type
Sun 08:09:40 AM 41.5125 -81.7061 354° North 122 140 1,100  Level Cleveland Center
Sun 08:11:05 AM 41.5583 -81.7125 354° North 138 159 2,200 781 Climbing Cleveland Center
Sun 08:12:06 AM 41.5817 -81.6769 49° Northeast 140 161 3,000 844 Climbing Cleveland Center
Sun 08:13:13 AM 41.5592 -81.6292 122° Southeast 128 147 4,000 812 Climbing Cleveland Center
Sun 08:14:19 AM 41.5386 -81.5872 123° Southeast 138 159 4,800 661 Climbing Cleveland Center
Sun 08:15:20 AM 41.5183 -81.5400 120° Southeast 142 163 5,400 678 Climbing Cleveland Center
Sun 08:16:14 AM 41.4956 -81.5008 128° Southeast 141 162 6,100 730 Climbing Cleveland Center
Sun 08:17:15 AM 41.4731 -81.4561 124° Southeast 142 163 6,800 32 Climbing Cleveland Center
Sun 08:19:00 AM 41.4301 -81.3705 114° Southeast  Level Estimated
Sun 08:26:00 AM 41.2168 -81.0671 118° Southeast  Level FlightAware Approximate
Sun 08:27:00 AM 41.1926 -81.0181 123° Southeast  Level FlightAware Approximate
Sun 08:28:00 AM 41.1683 -80.9692 123° Southeast  Level FlightAware Approximate
Sun 08:29:00 AM 41.1440 -80.9203 123° Southeast  Level FlightAware Approximate
Sun 08:30:00 AM 41.1196 -80.8714 123° Southeast  Level FlightAware Approximate
Sun 08:31:00 AM 41.0953 -80.8226 123° Southeast  Level FlightAware Approximate
Sun 08:32:00 AM 41.0709 -80.7738 124° Southeast  Level FlightAware Approximate
Sun 08:33:00 AM 41.0465 -80.7251 124° Southeast  Level FlightAware Approximate
Sun 08:34:00 AM 41.0221 -80.6764 124° Southeast  Level FlightAware Approximate
Sun 08:35:00 AM 40.9976 -80.6277 124° Southeast  Level FlightAware Approximate
Sun 08:36:00 AM 40.9732 -80.5790 124° Southeast  Level FlightAware Approximate
Sun 08:37:00 AM 40.9487 -80.5304 124° Southeast  Level FlightAware Approximate
Sun 08:38:00 AM 40.9243 -80.4818 123° Southeast  Level FlightAware Approximate
Sun 08:39:00 AM 40.9000 -80.4330 123° Southeast  Level FlightAware Approximate
Sun 08:40:00 AM 40.8758 -80.3842 123° Southeast  Level FlightAware Approximate
Sun 08:41:00 AM 40.8515 -80.3355 123° Southeast  Level FlightAware Approximate
Sun 08:42:00 AM 40.8272 -80.2869 123° Southeast  Level FlightAware Approximate
Sun 08:43:00 AM 40.8029 -80.2382 123° Southeast  Level FlightAware Approximate
Sun 08:44:00 AM 40.7785 -80.1896 123° Southeast  Level FlightAware Approximate
Sun 08:45:00 AM 40.7542 -80.1411 124° Southeast  Level FlightAware Approximate
Sun 08:46:00 AM 40.7298 -80.0925 124° Southeast  Level FlightAware Approximate
Sun 08:47:00 AM 40.7054 -80.0440 124° Southeast  Level FlightAware Approximate
Sun 08:47:56 AM 40.6969 -79.9450 125° Southeast 159 183 7,100  Level Cleveland Center
Sun 08:48:00 AM 40.6802 -79.9962 125° Southeast  Level FlightAware Approximate
Sun 08:49:00 AM 40.6549 -79.9486 125° Southeast  Level FlightAware Approximate
Sun 08:49:21 AM 40.6633 -79.8769 123° Southeast 166 191 6,900  Level Cleveland Center
Sun 08:50:00 AM 40.6295 -79.9010 125° Southeast  Level FlightAware Approximate
Sun 08:50:22 AM 40.6358 -79.8308 128° Southeast 164 189 7,000  Level Cleveland Center
Sun 08:51:00 AM 40.6041 -79.8535 125° Southeast  Level FlightAware Approximate
Sun 08:51:22 AM 40.6125 -79.7789 121° Southeast 160 184 7,000  Level Cleveland Center
Sun 08:52:00 AM 40.5787 -79.8060 125° Southeast  Level FlightAware Approximate
Sun 08:52:23 AM 40.5853 -79.7300 126° Southeast 155 178 7,000  Level Cleveland Center
Sun 08:53:00 AM 40.5532 -79.7586 125° Southeast  Level FlightAware Approximate
Sun 08:53:23 AM 40.5597 -79.6867 128° Southeast 157 181 7,000  Level Cleveland Center
Sun 08:54:24 AM 40.5344 -79.6378 124° Southeast 160 184 7,000  Level Cleveland Center
Sun 08:55:25 AM 40.5089 -79.5892 125° Southeast 162 186 7,000  Level Cleveland Center
Sun 08:56:25 AM 40.4814 -79.5375 125° Southeast 161 185 7,000  Level Cleveland Center
Sun 08:57:26 AM 40.4581 -79.4889 122° Southeast 163 188 7,000  Level Cleveland Center
Sun 08:58:26 AM 40.4306 -79.4403 127° Southeast 166 191 7,000  Level Cleveland Center
Sun 08:59:27 AM 40.4028 -79.3917 127° Southeast 165 190 7,000  Level Cleveland Center
Sun 09:00:28 AM 40.3772 -79.3403 123° Southeast 162 186 7,000  Level Cleveland Center
Sun 09:01:28 AM 40.3517 -79.2917 125° Southeast 161 185 7,000  Level Cleveland Center
Sun 09:02:29 AM 40.3261 -79.2486 128° Southeast 157 181 7,000  Level Cleveland Center
Sun 09:03:23 AM 40.3047 -79.2056 123° Southeast 155 178 7,000  Level Cleveland Center
Sun 09:04:24 AM 40.2811 -79.1517 120° Southeast 157 181 7,000  Level Cleveland Center
Sun 09:05:25 AM 40.2597 -79.1058 121° Southeast 156 180 7,000  Level Cleveland Center
Sun 09:06:25 AM 40.2322 -79.0656 132° Southeast 153 176 7,000  Level Cleveland Center
Sun 09:07:26 AM 40.2044 -79.0172 127° Southeast 154 177 7,000  Level Cleveland Center
Sun 09:08:33 AM 40.1786 -78.9664 124° Southeast 153 176 7,000  Level Cleveland Center
Sun 09:10:34 AM 40.1275 -78.8781 127° Southeast 150 173 7,000  Level Cleveland Center
Sun 09:11:34 AM 40.1036 -78.8297 123° Southeast 150 173 7,000  Level Cleveland Center
Sun 09:12:35 AM 40.0800 -78.7869 126° Southeast 150 173 7,000  Level Cleveland Center
Sun 09:13:36 AM 40.0544 -78.7442 128° Southeast 150 173 7,000  Level Cleveland Center
Sun 09:14:48 AM 40.0244 -78.6908 126° Southeast 151 174 7,000  Level Cleveland Center
Sun 09:15:49 AM 40.0006 -78.6425 123° Southeast 152 175 7,000  Level Cleveland Center
Sun 09:16:50 AM 39.9769 -78.6000 126° Southeast 153 176 7,000  Level Cleveland Center
Sun 09:17:50 AM 39.9511 -78.5547 127° Southeast 152 175 7,000  Level Cleveland Center
Sun 09:18:51 AM 39.9253 -78.5067 125° Southeast 153 176 7,000  Level Cleveland Center
Sun 09:20:49 AM 39.8744 -78.4139 126° Southeast 174 200 7,000 -101 Level Washington Center
Sun 09:21:49 AM 39.8483 -78.3725 129° Southeast 175 201 6,700 -496 Descending Washington Center
Sun 09:22:50 AM 39.8119 -78.3278 137° Southeast 175 201 6,000 -350 Descending Washington Center
Sun 09:23:49 AM 39.7853 -78.2997 141° Southeast 164 189 6,000  Level Washington Center
Sun 09:24:50 AM 39.7467 -78.2553 138° Southeast 158 182 6,000  Level Washington Center
Sun 09:25:50 AM 39.7142 -78.2217 141° Southeast 158 182 6,000  Level Washington Center
Sun 09:26:50 AM 39.6878 -78.1908 138° Southeast 158 182 6,000  Level Washington Center
Sun 09:27:48 AM 39.6572 -78.1547 138° Southeast 158 182 6,000  Level Washington Center
Sun 09:28:49 AM 39.6247 -78.1186 139° Southeast 158 182 6,000  Level Washington Center
Sun 09:29:50 AM 39.5942 -78.0825 138° Southeast 153 176 6,000  Level Washington Center
Sun 09:30:50 AM 39.5636 -78.0492 140° Southeast 153 176 6,000  Level Washington Center
Sun 09:31:48 AM 39.5311 -78.0131 139° Southeast 158 182 6,000  Level Washington Center
Sun 09:32:49 AM 39.5006 -77.9772 138° Southeast 158 182 6,000  Level Washington Center
Sun 09:34:54 AM 39.4333 -77.9000 138° Southeast 146 168 6,000 -34 Level Potomac TRACON
Sun 09:35:48 AM 39.4167 -77.8833 142° Southeast 146 168 5,900 -368 Descending Potomac TRACON
Sun 09:36:48 AM 39.3833 -77.8333 131° Southeast 162 186 5,300 -450 Descending Potomac TRACON
Sun 09:37:48 AM 39.3833 -77.7667 90° East 178 205 5,000 -150 Descending Potomac TRACON
Sun 09:38:48 AM 39.4000 -77.7167 67° East 173 199 5,000  Level Potomac TRACON
Sun 09:39:42 AM 39.4167 -77.6500 72° East 162 186 5,000  Level Potomac TRACON
Sun 09:40:43 AM 39.4167 -77.6000 90° East 156 180 5,000  Level Potomac TRACON
Sun 09:41:43 AM 39.4167 -77.5500 90° East 157 181 5,000  Level Potomac TRACON
Sun 09:42:43 AM 39.4333 -77.5000 67° East 155 178 5,000  Level Potomac TRACON
Sun 09:43:43 AM 39.4333 -77.4333 90° East 157 181 5,000  Level Potomac TRACON
Sun 09:44:43 AM 39.4500 -77.3833 67° East 155 178 5,000 -150 Level Potomac TRACON
Sun 09:45:43 AM 39.4333 -77.3167 108° East 159 183 4,700 -650 Descending Potomac TRACON
Sun 09:46:43 AM 39.4000 -77.2833 142° Southeast 178 205 3,700 -750 Descending Potomac TRACON
Sun 09:47:43 AM 39.3500 -77.2667 166° South 169 194 3,200 -474 Descending Potomac TRACON
Sun 09:48:37 AM 39.3167 -77.2500 159° South 167 192 2,800 -550 Descending Potomac TRACON
Sun 09:49:43 AM 39.2667 -77.2167 153° Southeast 170 196 2,100 -636 Descending Potomac TRACON

Login

Don't have an account? Register now (free) for customized features, flight alerts, and more!